createdAt,value
2023-05-21T00:01:27.039Z,16.40
2023-05-21T00:03:54.359Z,16.40
2023-05-21T00:06:23.396Z,16.40
2023-05-21T00:08:51.113Z,16.30
2023-05-21T00:11:18.704Z,16.30
2023-05-21T00:13:45.984Z,16.30
2023-05-21T00:16:13.327Z,16.30
2023-05-21T00:18:41.078Z,16.30
2023-05-21T00:21:08.304Z,16.30
2023-05-21T00:23:37.757Z,16.30
2023-05-21T00:26:05.364Z,16.30
2023-05-21T00:28:32.751Z,16.30
2023-05-21T00:30:59.980Z,16.30
2023-05-21T00:33:29.112Z,16.30
2023-05-21T00:35:57.577Z,16.30
2023-05-21T00:38:28.035Z,16.20
2023-05-21T00:40:55.943Z,16.20
2023-05-21T00:43:26.748Z,16.20
2023-05-21T00:45:56.587Z,16.20
2023-05-21T00:48:24.352Z,16.20
2023-05-21T00:50:52.065Z,16.20
2023-05-21T00:53:19.791Z,16.20
2023-05-21T00:55:48.372Z,16.20
2023-05-21T00:58:17.953Z,16.20
2023-05-21T01:00:45.605Z,16.20
2023-05-21T01:03:13.956Z,16.20
2023-05-21T01:05:45.311Z,16.20
2023-05-21T01:08:13.117Z,16.20
2023-05-21T01:10:40.619Z,16.20
2023-05-21T01:13:08.530Z,16.20
2023-05-21T01:15:38.046Z,16.20
2023-05-21T01:18:06.188Z,16.20
2023-05-21T01:20:33.764Z,16.20
2023-05-21T01:23:02.244Z,16.10
2023-05-21T01:25:30.246Z,16.20
2023-05-21T01:27:58.058Z,16.20
2023-05-21T01:30:25.524Z,16.20
2023-05-21T01:33:13.399Z,16.20
2023-05-21T01:35:49.915Z,16.20
2023-05-21T01:38:49.199Z,16.20
2023-05-21T01:41:19.826Z,16.20
2023-05-21T01:43:47.685Z,16.20
2023-05-21T01:46:19.777Z,16.20
2023-05-21T01:48:49.409Z,16.20
2023-05-21T01:51:17.782Z,16.20
2023-05-21T01:53:45.351Z,16.30
2023-05-21T01:56:12.867Z,16.30
2023-05-21T01:58:40.149Z,16.30
2023-05-21T02:01:09.024Z,16.30
2023-05-21T02:03:36.986Z,16.30
2023-05-21T02:06:04.532Z,16.30
2023-05-21T02:08:31.704Z,16.30
2023-05-21T02:10:59.542Z,16.40
2023-05-21T02:13:27.057Z,16.40
2023-05-21T02:15:55.419Z,16.40
2023-05-21T02:18:23.919Z,16.40
2023-05-21T02:20:51.251Z,16.40
2023-05-21T02:23:18.691Z,16.50
2023-05-21T02:25:46.340Z,16.50
2023-05-21T02:28:14.485Z,16.50
2023-05-21T02:30:41.792Z,16.40
2023-05-21T02:33:09.499Z,16.40
2023-05-21T02:35:36.957Z,16.40
2023-05-21T02:38:04.577Z,16.50
2023-05-21T02:40:33.368Z,16.50
2023-05-21T02:43:00.703Z,16.50
2023-05-21T02:45:30.285Z,16.50
2023-05-21T02:47:57.835Z,16.50
2023-05-21T02:50:25.235Z,16.50
2023-05-21T02:53:00.029Z,16.50
2023-05-21T02:55:28.464Z,16.50
2023-05-21T02:57:56.032Z,16.50
2023-05-21T03:00:23.584Z,16.50
2023-05-21T03:02:51.189Z,16.40
2023-05-21T03:05:18.572Z,16.30
2023-05-21T03:07:46.126Z,16.30
2023-05-21T03:10:13.762Z,16.30
2023-05-21T03:12:41.287Z,16.30
2023-05-21T03:15:09.223Z,16.20
2023-05-21T03:17:36.455Z,16.20
2023-05-21T03:20:05.461Z,16.20
2023-05-21T03:22:33.410Z,16.20
2023-05-21T03:25:01.957Z,16.10
2023-05-21T03:27:29.360Z,16.00
2023-05-21T03:29:57.796Z,16.00
2023-05-21T03:32:25.282Z,16.00
2023-05-21T03:34:54.524Z,16.00
2023-05-21T03:37:22.027Z,16.10
2023-05-21T03:39:49.232Z,16.10
2023-05-21T03:42:16.591Z,16.10
2023-05-21T03:44:51.308Z,16.10
2023-05-21T03:47:38.945Z,16.00
2023-05-21T03:50:09.583Z,16.00
2023-05-21T03:52:37.522Z,16.00
2023-05-21T03:55:06.869Z,15.90
2023-05-21T03:57:34.592Z,15.90
2023-05-21T04:00:02.036Z,15.80
2023-05-21T04:02:32.672Z,15.70
2023-05-21T04:05:00.283Z,15.70
2023-05-21T04:07:27.541Z,15.70
2023-05-21T04:09:54.818Z,15.60
2023-05-21T04:12:22.563Z,15.60
2023-05-21T04:14:49.972Z,15.60
2023-05-21T04:17:17.321Z,15.60
2023-05-21T04:19:44.981Z,15.60
2023-05-21T04:22:12.397Z,15.70
2023-05-21T04:24:40.001Z,15.70
2023-05-21T04:27:11.730Z,15.70
2023-05-21T04:29:43.464Z,15.70
2023-05-21T04:32:11.892Z,15.70
2023-05-21T04:34:40.666Z,15.80
2023-05-21T04:37:09.553Z,15.80
2023-05-21T04:39:37.468Z,15.70
2023-05-21T04:42:05.585Z,15.70
2023-05-21T04:44:32.971Z,15.80
2023-05-21T04:47:02.519Z,15.80
2023-05-21T04:49:30.291Z,15.80
2023-05-21T04:51:57.653Z,15.80
2023-05-21T04:54:25.072Z,15.80
2023-05-21T04:56:52.556Z,15.80
2023-05-21T04:59:20.291Z,15.70
2023-05-21T05:01:47.609Z,15.70
2023-05-21T05:04:15.130Z,15.80
2023-05-21T05:06:42.343Z,15.80
2023-05-21T05:09:09.886Z,15.70
2023-05-21T05:11:37.215Z,15.80
2023-05-21T05:14:05.082Z,15.80
2023-05-21T05:16:32.566Z,15.80
2023-05-21T05:19:00.006Z,15.80
2023-05-21T05:21:27.576Z,15.90
2023-05-21T05:23:55.420Z,15.90
2023-05-21T05:26:27.252Z,15.90
2023-05-21T05:28:55.557Z,15.90
2023-05-21T05:31:22.967Z,15.90
2023-05-21T05:33:50.297Z,15.90
2023-05-21T05:36:17.883Z,15.90
2023-05-21T05:38:46.668Z,15.90
2023-05-21T05:41:14.060Z,15.90
2023-05-21T05:43:41.652Z,15.90
2023-05-21T05:46:09.999Z,16.00
2023-05-21T05:48:37.243Z,16.00
2023-05-21T05:51:05.405Z,16.00
2023-05-21T05:53:32.741Z,16.00
2023-05-21T05:56:00.281Z,16.10
2023-05-21T05:58:29.777Z,16.10
2023-05-21T06:01:06.398Z,16.20
2023-05-21T06:03:34.079Z,16.20
2023-05-21T06:06:08.061Z,16.20
2023-05-21T06:08:38.042Z,16.20
2023-05-21T06:11:05.886Z,16.30
2023-05-21T06:13:33.303Z,16.30
2023-05-21T06:16:01.204Z,16.40
2023-05-21T06:18:28.547Z,16.30
2023-05-21T06:20:56.129Z,16.40
2023-05-21T06:23:24.050Z,16.40
2023-05-21T06:25:51.482Z,16.40
2023-05-21T06:28:20.456Z,16.40
2023-05-21T06:30:49.323Z,16.50
2023-05-21T06:33:18.418Z,16.50
2023-05-21T06:35:46.164Z,16.50
2023-05-21T06:38:13.561Z,16.50
2023-05-21T06:40:41.032Z,16.50
2023-05-21T06:43:12.815Z,16.50
2023-05-21T06:45:58.772Z,16.50
2023-05-21T06:48:36.363Z,16.50
2023-05-21T06:51:03.818Z,16.50
2023-05-21T06:53:31.354Z,16.60
2023-05-21T06:55:58.691Z,16.60
2023-05-21T06:58:41.780Z,16.50
2023-05-21T07:01:09.069Z,16.50
2023-05-21T07:03:36.925Z,16.60
2023-05-21T07:06:04.347Z,16.50
2023-05-21T07:08:31.849Z,16.60
2023-05-21T07:11:00.063Z,16.50
2023-05-21T07:13:27.662Z,16.50
2023-05-21T07:15:55.723Z,16.50
2023-05-21T07:18:23.025Z,16.50
2023-05-21T07:20:50.614Z,16.60
2023-05-21T07:23:18.295Z,16.60
2023-05-21T07:25:46.570Z,16.60
2023-05-21T07:28:15.962Z,16.60
2023-05-21T07:30:43.593Z,16.60
2023-05-21T07:33:16.557Z,16.60
2023-05-21T07:35:45.186Z,16.60
2023-05-21T07:38:12.638Z,16.60
2023-05-21T07:40:39.993Z,16.60
2023-05-21T07:43:07.763Z,16.70
2023-05-21T07:45:37.448Z,16.70
2023-05-21T07:48:06.221Z,16.70
2023-05-21T07:50:35.961Z,16.70
2023-05-21T07:53:03.867Z,16.70
2023-05-21T07:55:32.168Z,16.70
2023-05-21T07:58:02.761Z,16.70
2023-05-21T08:00:44.029Z,16.70
2023-05-21T08:03:12.584Z,16.70
2023-05-21T08:05:39.966Z,16.70
2023-05-21T08:08:09.776Z,16.70
2023-05-21T08:10:37.487Z,16.60
2023-05-21T08:13:04.764Z,16.70
2023-05-21T08:15:32.221Z,16.70
2023-05-21T08:17:59.659Z,16.70
2023-05-21T08:20:27.807Z,16.70
2023-05-21T08:22:55.831Z,16.70
2023-05-21T08:25:23.857Z,16.70
2023-05-21T08:27:52.536Z,16.70
2023-05-21T08:30:22.030Z,16.70
2023-05-21T08:32:49.952Z,16.70
2023-05-21T08:35:20.229Z,16.80
2023-05-21T08:38:02.033Z,16.90
2023-05-21T08:40:54.529Z,16.90
2023-05-21T08:43:22.410Z,16.80
2023-05-21T08:45:59.387Z,16.90
2023-05-21T08:48:32.191Z,16.90
2023-05-21T08:51:01.484Z,16.80
2023-05-21T08:53:36.213Z,16.70
2023-05-21T08:56:07.097Z,16.60
2023-05-21T08:58:45.559Z,16.60
2023-05-21T09:01:14.935Z,16.60
2023-05-21T09:03:47.389Z,16.60
2023-05-21T09:06:18.177Z,16.60
2023-05-21T09:08:53.378Z,16.50
2023-05-21T09:11:29.614Z,16.50
2023-05-21T09:14:00.929Z,16.50
2023-05-21T09:16:42.989Z,16.50
2023-05-21T09:19:16.303Z,16.40
2023-05-21T09:21:44.296Z,16.30
2023-05-21T09:24:17.981Z,16.20
2023-05-21T09:26:46.264Z,16.10
2023-05-21T09:29:15.689Z,16.10
2023-05-21T09:31:46.705Z,16.10
2023-05-21T09:34:14.894Z,16.10
2023-05-21T09:36:47.272Z,16.20
2023-05-21T09:39:33.590Z,16.20
2023-05-21T09:42:03.591Z,16.20
2023-05-21T09:44:32.311Z,16.30
2023-05-21T09:46:59.772Z,16.30
2023-05-21T09:49:28.346Z,16.40
2023-05-21T09:51:58.088Z,16.50
2023-05-21T09:54:30.995Z,16.40
2023-05-21T09:57:00.117Z,16.50
2023-05-21T09:59:36.736Z,16.40
2023-05-21T10:02:04.242Z,16.40
2023-05-21T10:04:32.258Z,16.40
2023-05-21T10:07:00.328Z,16.40
2023-05-21T10:09:29.763Z,16.40
2023-05-21T10:11:58.776Z,16.30
2023-05-21T10:14:30.713Z,16.30
2023-05-21T10:16:59.068Z,16.30
2023-05-21T10:19:27.331Z,16.30
2023-05-21T10:21:55.745Z,16.40
2023-05-21T10:24:24.273Z,16.40
2023-05-21T10:26:52.482Z,16.40
2023-05-21T10:29:20.893Z,16.40
2023-05-21T10:31:50.197Z,16.40
2023-05-21T10:34:18.020Z,16.40
2023-05-21T10:36:49.728Z,16.40
2023-05-21T10:39:20.982Z,16.30
2023-05-21T10:42:07.598Z,16.30
2023-05-21T10:44:59.286Z,16.20
2023-05-21T10:47:39.449Z,16.10
2023-05-21T10:50:44.816Z,16.00
2023-05-21T10:53:37.559Z,16.00
2023-05-21T10:56:23.185Z,15.90
2023-05-21T10:59:22.518Z,15.90
2023-05-21T11:01:53.801Z,15.90
2023-05-21T11:04:27.510Z,15.90
2023-05-21T11:06:56.454Z,15.90
2023-05-21T11:09:23.800Z,16.00
2023-05-21T11:11:53.990Z,16.10
2023-05-21T11:14:28.703Z,16.00
2023-05-21T11:16:57.246Z,16.10
2023-05-21T11:19:39.711Z,16.20
2023-05-21T11:22:20.007Z,16.30
2023-05-21T11:24:50.560Z,16.40
2023-05-21T11:27:39.306Z,16.40
2023-05-21T11:30:15.042Z,16.40
2023-05-21T11:33:14.178Z,16.50
2023-05-21T11:35:54.528Z,16.60
2023-05-21T11:38:21.885Z,16.70
2023-05-21T11:40:55.663Z,16.70
2023-05-21T11:43:23.131Z,16.80
2023-05-21T11:45:52.853Z,16.90
2023-05-21T11:48:26.892Z,17.00
2023-05-21T11:50:55.264Z,17.10
2023-05-21T11:53:22.562Z,17.30
2023-05-21T11:55:50.815Z,17.40
2023-05-21T11:58:19.810Z,17.50
2023-05-21T12:00:50.777Z,17.50
2023-05-21T12:03:18.300Z,17.60
2023-05-21T12:05:49.372Z,17.60
2023-05-21T12:08:27.277Z,17.60
2023-05-21T12:11:00.263Z,17.50
2023-05-21T12:13:28.618Z,17.40
2023-05-21T12:15:55.843Z,17.40
2023-05-21T12:18:23.457Z,17.50
2023-05-21T12:20:52.430Z,17.50
2023-05-21T12:23:30.514Z,17.40
2023-05-21T12:25:57.903Z,17.40
2023-05-21T12:28:25.530Z,17.40
2023-05-21T12:30:53.713Z,17.40
2023-05-21T12:33:23.143Z,17.40
2023-05-21T12:35:52.679Z,17.50
2023-05-21T12:38:20.756Z,17.50
2023-05-21T12:40:48.148Z,17.50
2023-05-21T12:43:15.609Z,17.50
2023-05-21T12:45:43.826Z,17.50
2023-05-21T12:48:12.266Z,17.50
2023-05-21T12:50:41.023Z,17.60
2023-05-21T12:53:10.068Z,17.60
2023-05-21T12:55:37.365Z,17.60
2023-05-21T12:58:08.436Z,17.60
2023-05-21T13:00:36.751Z,17.60
2023-05-21T13:03:06.622Z,17.60
2023-05-21T13:05:34.742Z,17.70
2023-05-21T13:08:02.167Z,17.70
2023-05-21T13:10:29.460Z,17.80
2023-05-21T13:12:56.814Z,18.00
2023-05-21T13:15:24.118Z,18.10
2023-05-21T13:17:53.126Z,18.10
2023-05-21T13:20:34.576Z,18.20
2023-05-21T13:23:04.644Z,18.30
2023-05-21T13:25:33.128Z,18.40
2023-05-21T13:28:05.028Z,18.50
2023-05-21T13:30:33.820Z,18.70
2023-05-21T13:33:01.521Z,18.80
2023-05-21T13:35:30.548Z,18.90
2023-05-21T13:37:57.798Z,18.80
2023-05-21T13:40:25.232Z,19.00
2023-05-21T13:42:52.544Z,19.10
2023-05-21T13:45:21.173Z,19.30
2023-05-21T13:47:48.926Z,19.40
2023-05-21T13:50:17.231Z,19.40
2023-05-21T13:52:45.043Z,19.60
2023-05-21T13:55:12.623Z,19.60
2023-05-21T13:57:40.842Z,19.40
2023-05-21T14:00:14.233Z,19.50
2023-05-21T14:02:43.185Z,19.60
2023-05-21T14:05:11.865Z,19.50
2023-05-21T14:07:40.178Z,19.60
2023-05-21T14:10:08.028Z,19.40
2023-05-21T14:12:35.676Z,19.50
2023-05-21T14:15:03.128Z,19.80
2023-05-21T14:17:30.587Z,20.10
2023-05-21T14:19:58.074Z,20.30
2023-05-21T14:22:25.395Z,20.20
2023-05-21T14:24:56.364Z,20.30
2023-05-21T14:27:23.792Z,20.80
2023-05-21T14:29:51.090Z,20.70
2023-05-21T14:32:19.895Z,20.60
2023-05-21T14:34:47.395Z,20.70
2023-05-21T14:37:14.697Z,20.50
2023-05-21T14:39:42.110Z,20.80
2023-05-21T14:42:09.460Z,21.20
2023-05-21T14:44:36.900Z,21.30
2023-05-21T14:47:04.392Z,20.80
2023-05-21T14:49:31.866Z,20.50
2023-05-21T14:51:59.076Z,20.30
2023-05-21T14:54:26.363Z,20.20
2023-05-21T14:56:54.350Z,20.30
2023-05-21T14:59:21.721Z,20.30
2023-05-21T15:01:49.110Z,20.40
2023-05-21T15:04:16.504Z,20.30
2023-05-21T15:06:43.863Z,20.10
2023-05-21T15:09:11.379Z,20.20
2023-05-21T15:11:39.928Z,20.40
2023-05-21T15:14:07.224Z,20.60
2023-05-21T15:16:34.565Z,20.60
2023-05-21T15:19:01.912Z,20.50
2023-05-21T15:21:29.432Z,20.00
2023-05-21T15:23:57.093Z,19.70
2023-05-21T15:26:25.679Z,19.60
2023-05-21T15:28:53.070Z,19.50
2023-05-21T15:31:20.502Z,19.50
2023-05-21T15:33:47.777Z,19.30
2023-05-21T15:36:15.293Z,19.20
2023-05-21T15:38:42.576Z,19.10
2023-05-21T15:41:09.866Z,19.00
2023-05-21T15:43:38.446Z,18.80
2023-05-21T15:46:05.806Z,18.60
2023-05-21T15:48:33.149Z,18.50
2023-05-21T15:51:00.386Z,18.40
2023-05-21T15:53:28.009Z,18.30
2023-05-21T15:55:56.065Z,18.20
2023-05-21T15:58:23.547Z,18.10
2023-05-21T16:00:52.160Z,18.00
2023-05-21T16:03:19.489Z,18.00
2023-05-21T16:05:46.813Z,18.00
2023-05-21T16:08:14.356Z,17.90
2023-05-21T16:10:42.363Z,17.80
2023-05-21T16:13:09.628Z,17.70
2023-05-21T16:15:37.039Z,17.60
2023-05-21T16:18:04.934Z,17.60
2023-05-21T16:20:33.476Z,17.50
2023-05-21T16:23:00.826Z,17.30
2023-05-21T16:25:28.089Z,17.20
2023-05-21T16:27:55.352Z,17.00
2023-05-21T16:30:22.711Z,17.00
2023-05-21T16:32:50.138Z,16.90
2023-05-21T16:35:17.461Z,16.90
2023-05-21T16:37:44.828Z,16.80
2023-05-21T16:40:13.308Z,16.70
2023-05-21T16:42:40.588Z,16.70
2023-05-21T16:45:08.441Z,16.70
2023-05-21T16:47:35.769Z,16.70
2023-05-21T16:50:03.458Z,16.60
2023-05-21T16:52:30.654Z,16.60
2023-05-21T16:54:57.877Z,16.60
2023-05-21T16:57:25.187Z,16.60
2023-05-21T16:59:52.365Z,16.60
2023-05-21T17:02:19.688Z,16.60
2023-05-21T17:04:46.837Z,16.50
2023-05-21T17:07:15.813Z,16.60
2023-05-21T17:09:43.233Z,16.50
2023-05-21T17:12:10.678Z,16.50
2023-05-21T17:14:39.961Z,16.40
2023-05-21T17:17:07.662Z,16.40
2023-05-21T17:19:35.093Z,16.40
2023-05-21T17:22:02.472Z,16.40
2023-05-21T17:24:29.824Z,16.40
2023-05-21T17:26:57.282Z,16.30
2023-05-21T17:29:24.555Z,16.30
2023-05-21T17:31:52.071Z,16.20
2023-05-21T17:34:19.453Z,16.30
2023-05-21T17:36:46.664Z,16.30
2023-05-21T17:39:13.977Z,16.20
2023-05-21T17:41:41.378Z,16.20
2023-05-21T17:44:08.914Z,16.20
2023-05-21T17:46:36.320Z,16.20
2023-05-21T17:49:03.871Z,16.20
2023-05-21T17:51:31.714Z,16.20
2023-05-21T17:53:59.155Z,16.10
2023-05-21T17:56:29.382Z,16.10
2023-05-21T17:58:56.724Z,16.10
2023-05-21T18:01:24.270Z,16.10
2023-05-21T18:03:51.615Z,16.10
2023-05-21T18:06:18.977Z,16.00
2023-05-21T18:08:46.209Z,16.00
2023-05-21T18:11:13.426Z,16.00
2023-05-21T18:13:40.903Z,16.00
2023-05-21T18:16:09.203Z,16.00
2023-05-21T18:18:36.508Z,16.00
2023-05-21T18:21:03.927Z,16.10
2023-05-21T18:23:31.603Z,16.10
2023-05-21T18:25:59.009Z,16.10
2023-05-21T18:28:27.674Z,16.20
2023-05-21T18:31:01.072Z,16.10
2023-05-21T18:33:28.485Z,16.10
2023-05-21T18:35:55.768Z,16.10
2023-05-21T18:38:23.838Z,16.10
2023-05-21T18:40:51.703Z,16.10
2023-05-21T18:43:19.147Z,16.10
2023-05-21T18:45:47.298Z,16.20
2023-05-21T18:48:14.686Z,16.20
2023-05-21T18:50:43.150Z,16.20
2023-05-21T18:53:10.818Z,16.10
2023-05-21T18:55:38.089Z,16.10
2023-05-21T18:58:06.070Z,16.10
2023-05-21T19:00:34.853Z,16.10
2023-05-21T19:03:02.572Z,16.10
2023-05-21T19:05:29.994Z,16.10
2023-05-21T19:07:59.299Z,16.10
2023-05-21T19:10:33.283Z,16.10
2023-05-21T19:13:00.689Z,16.10
2023-05-21T19:15:30.019Z,16.10
2023-05-21T19:17:57.259Z,16.00
2023-05-21T19:20:25.048Z,16.00
2023-05-21T19:22:52.448Z,16.00
2023-05-21T19:25:19.750Z,15.90
2023-05-21T19:27:47.001Z,16.00
2023-05-21T19:30:14.410Z,15.90
2023-05-21T19:32:41.689Z,16.00
2023-05-21T19:35:09.229Z,16.00
2023-05-21T19:37:36.626Z,16.00
2023-05-21T19:40:06.158Z,16.00
2023-05-21T19:42:33.454Z,16.00
2023-05-21T19:45:00.713Z,16.00
2023-05-21T19:47:28.192Z,16.00
2023-05-21T19:49:56.561Z,16.00
2023-05-21T19:52:24.334Z,16.10
2023-05-21T19:54:51.790Z,16.10
2023-05-21T19:57:19.274Z,16.10
2023-05-21T19:59:46.561Z,16.10
2023-05-21T20:02:16.129Z,16.10
2023-05-21T20:04:43.549Z,16.10
2023-05-21T20:07:10.989Z,16.20
2023-05-21T20:09:39.105Z,16.20
2023-05-21T20:12:08.570Z,16.10
2023-05-21T20:14:36.020Z,16.10
2023-05-21T20:17:05.943Z,16.10
2023-05-21T20:19:33.550Z,16.10
2023-05-21T20:22:01.150Z,16.10
2023-05-21T20:24:28.467Z,16.10
2023-05-21T20:26:55.724Z,16.10
2023-05-21T20:29:23.129Z,16.10
2023-05-21T20:31:50.458Z,16.10
2023-05-21T20:34:17.792Z,16.10
2023-05-21T20:36:45.096Z,16.00
2023-05-21T20:39:13.238Z,16.00
2023-05-21T20:41:40.520Z,16.10
2023-05-21T20:44:07.669Z,16.10
2023-05-21T20:46:38.991Z,16.10
2023-05-21T20:49:07.154Z,16.10
2023-05-21T20:51:34.404Z,16.10
2023-05-21T20:54:01.566Z,16.10
2023-05-21T20:56:41.700Z,16.10
2023-05-21T20:59:10.934Z,16.10
2023-05-21T21:01:40.822Z,16.10
2023-05-21T21:04:18.073Z,16.00
2023-05-21T21:06:46.772Z,16.10
2023-05-21T21:09:13.992Z,16.10
2023-05-21T21:11:41.315Z,16.10
2023-05-21T21:14:08.868Z,16.20
2023-05-21T21:16:36.415Z,16.20
2023-05-21T21:19:03.815Z,16.20
2023-05-21T21:21:32.017Z,16.20
2023-05-21T21:23:59.305Z,16.20
2023-05-21T21:26:27.141Z,16.20
2023-05-21T21:28:56.391Z,16.20
2023-05-21T21:31:24.200Z,16.20
2023-05-21T21:33:51.583Z,16.20
2023-05-21T21:36:18.941Z,16.20
2023-05-21T21:38:46.207Z,16.20
2023-05-21T21:41:13.731Z,16.20
2023-05-21T21:43:40.948Z,16.20
2023-05-21T21:46:08.344Z,16.20
2023-05-21T21:48:35.592Z,16.20
2023-05-21T21:51:03.108Z,16.20
2023-05-21T21:53:30.493Z,16.20
2023-05-21T21:55:57.865Z,16.20
2023-05-21T21:58:25.182Z,16.10
2023-05-21T22:00:53.009Z,16.10
2023-05-21T22:03:20.333Z,16.10
2023-05-21T22:05:50.710Z,16.10
2023-05-21T22:08:18.113Z,16.10
2023-05-21T22:10:45.461Z,16.10
2023-05-21T22:13:13.041Z,16.00
2023-05-21T22:15:40.571Z,16.00
2023-05-21T22:18:09.624Z,16.00
2023-05-21T22:20:38.500Z,16.00
2023-05-21T22:23:06.557Z,16.00
2023-05-21T22:25:33.770Z,16.00
2023-05-21T22:28:01.256Z,16.00
2023-05-21T22:30:28.517Z,16.00
2023-05-21T22:32:56.980Z,16.00
2023-05-21T22:35:24.438Z,16.00
2023-05-21T22:37:51.848Z,16.00
2023-05-21T22:40:19.249Z,16.00
2023-05-21T22:42:47.346Z,16.00
2023-05-21T22:45:15.500Z,16.00
2023-05-21T22:47:42.907Z,16.00
2023-05-21T22:50:10.804Z,16.00
2023-05-21T22:52:38.504Z,16.00
2023-05-21T22:55:06.489Z,16.10
2023-05-21T22:57:33.853Z,16.10
2023-05-21T23:00:01.226Z,16.10
2023-05-21T23:02:29.536Z,16.10
2023-05-21T23:04:58.245Z,16.10
2023-05-21T23:07:25.906Z,16.20
2023-05-21T23:09:53.183Z,16.20
2023-05-21T23:12:20.651Z,16.20
2023-05-21T23:14:48.020Z,16.20
2023-05-21T23:17:15.593Z,16.10
2023-05-21T23:19:42.987Z,16.10
2023-05-21T23:22:10.527Z,16.10
2023-05-21T23:24:39.045Z,16.10
2023-05-21T23:27:06.312Z,16.10
2023-05-21T23:29:33.696Z,16.10
2023-05-21T23:32:01.221Z,16.10
2023-05-21T23:34:28.617Z,16.10
2023-05-21T23:36:57.011Z,16.00
2023-05-21T23:39:28.054Z,16.10
2023-05-21T23:41:55.646Z,16.10
2023-05-21T23:44:22.957Z,16.00
2023-05-21T23:46:50.276Z,16.00
2023-05-21T23:49:17.700Z,16.00
2023-05-21T23:51:45.043Z,16.00
2023-05-21T23:54:12.340Z,16.00
2023-05-21T23:56:39.534Z,16.00
2023-05-21T23:59:06.796Z,16.00
